Data for 05/09/2018

Time Sea-Level Adjusted Pressure Absolute Pressure Temperature Relative Humidity Dew Point   
(mb) (inHg) (mb) (inHg) (C) (F) (%) (C) (F)
00:05 1020 30.12 849 25.07 12 53.7 50 2 35.7
00:10 1020 30.12 849 25.07 11.8 53.3 51 2 35.7
00:15 1020 30.12 849 25.07 11.7 53 52 2.1 35.7
00:20 1020 30.12 849 25.07 11.5 52.8 51 1.9 35.4
00:25 1020 30.12 849 25.07 11.6 52.9 52 2 35.6
00:30 1020 30.12 849 25.07 11.5 52.7 52 2.1 35.7
00:35 1020 30.12 849 25.07 11.4 52.4 52 2 35.5
00:40 1020 30.12 849 25.07 11.4 52.5 52 2 35.5
00:45 1020 30.12 849 25.07 11.4 52.4 52 2 35.6
00:50 1020 30.12 849 25.07 11.2 52.2 53 2 35.6
00:55 1020 30.12 849 25.07 11.1 51.9 53 1.9 35.5
01:00 1020 30.12 849 25.07 10.9 51.7 54 2 35.6
01:05 1020 30.12 849 25.07 11.1 51.9 53 2 35.6
01:10 1020 30.12 849 25.07 10.9 51.6 52 1.4 34.6
01:15 1020 30.12 849 25.07 11.1 52 53 1.9 35.4
01:20 1020 30.12 849 25.07 10.9 51.7 53 1.8 35.3
01:25 1020 30.12 849 25.07 10.9 51.6 53 1.7 35.1
01:30 1020 30.12 849 25.07 10.9 51.6 52 1.5 34.6
01:35 1020 30.12 849 25.07 10.9 51.7 53 1.7 35.1
01:40 1020 30.12 849 25.07 10.7 51.3 54 1.8 35.2
01:45 1020 30.12 849 25.07 10.7 51.2 53 1.5 34.7
01:50 1020 30.12 849 25.07 10.8 51.4 53 1.6 34.9
01:55 1020 30.12 849 25.07 10.5 50.9 55 1.8 35.3
02:00 1020 30.12 849 25.07 10.1 50.2 56 1.8 35.2
02:05 1020 30.12 849 25.07 9.9 49.9 56 1.5 34.8
02:10 1020 30.12 849 25.07 10.2 50.4 54 1.3 34.4
02:15 1020 30.12 849 25.07 10.7 51.3 53 1.5 34.7
02:20 1020 30.12 849 25.07 11 51.8 51 1.4 34.5
02:25 1019 30.09 849 25.07 11.3 52.4 49 1.2 34.1
02:30 1020 30.12 849 25.07 11.8 53.2 48 1.2 34.1
02:35 1020 30.12 849 25.07 11.8 53.3 48 1.2 34.2
02:40 1019 30.09 849 25.07 12 53.6 46 0.9 33.7
02:45 1019 30.09 849 25.07 12.3 54.1 45 0.7 33.2
02:50 1019 30.09 849 25.07 12.7 54.9 43 0.5 32.9
02:55 1019 30.09 849 25.07 13 55.4 42 0.6 33.1
03:00 1019 30.09 849 25.07 13 55.4 42 0.6 33.1
03:05 1019 30.09 849 25.07 13.2 55.7 41 0.3 32.6
03:10 1019 30.09 849 25.07 13.4 56 41 0.5 32.9
03:15 1019 30.09 849 25.07 13.3 56 41 0.3 32.6
03:20 1019 30.09 849 25.07 13.4 56.1 41 0.4 32.7
03:25 1019 30.09 849 25.07 13.3 56 41 0.3 32.5
03:30 1019 30.09 849 25.07 13.3 55.9 41 0.4 32.7
03:35 1019 30.09 848 25.04 13.4 56.1 40 0.2 32.4
03:40 1019 30.09 848 25.04 13.4 56 41 0.4 32.7
03:45 1019 30.09 848 25.04 13.3 55.9 41 0.3 32.6
03:50 1019 30.09 848 25.04 13.2 55.7 41 0.2 32.3
03:55 1019 30.09 848 25.04 13.1 55.5 41 0.3 32.5
04:00 1019 30.09 848 25.04 13.1 55.7 41 0.2 32.4
04:05 1019 30.09 848 25.04 13 55.4 41 0.2 32.4
04:10 1019 30.09 848 25.04 13 55.4 41 0.1 32.3
04:15 1019 30.09 848 25.04 13 55.3 41 0.1 32.2
04:20 1019 30.09 848 25.04 13 55.3 41 0 32.1
04:25 1019 30.09 848 25.04 12.9 55.3 40 -0.2 31.7
04:30 1019 30.09 848 25.04 13 55.4 41 -0 32
04:35 1019 30.09 848 25.04 12.9 55.1 41 0.1 32.1
04:40 1019 30.09 848 25.04 12.6 54.6 42 0.1 32.3
04:45 1019 30.09 848 25.04 12.4 54.4 42 -0 31.9
04:50 1019 30.09 848 25.04 12.4 54.3 43 0.1 32.1
04:55 1019 30.09 848 25.04 12.3 54.2 42 -0.1 31.8
05:00 1019 30.09 848 25.04 12.4 54.2 43 0.1 32.2
05:05 1018 30.06 848 25.04 12.3 54.1 43 0.1 32.1
05:10 1018 30.06 847 25.01 12.3 54.2 43 0.1 32.2
05:15 1018 30.06 847 25.01 12.3 54.2 43 0.3 32.5
05:20 1018 30.06 847 25.01 12.3 54.2 43 0.2 32.4
05:25 1018 30.06 847 25.01 12.2 54 44 0.3 32.5
05:30 1018 30.06 847 25.01 12.2 54 43 0.2 32.4
05:35 1018 30.06 847 25.01 12.3 54.1 43 0.1 32.2
05:40 1018 30.06 847 25.01 12.3 54.2 43 0.2 32.3
05:45 1018 30.06 847 25.01 12.3 54.2 43 0.2 32.3
05:50 1018 30.06 847 25.01 12.3 54.1 43 0.2 32.4
05:55 1018 30.06 847 25.01 12.3 54.1 43 0.1 32.2
06:00 1018 30.06 847 25.01 12.3 54.1 43 0.2 32.3
06:05 1018 30.06 847 25.01 12.2 53.9 44 0.3 32.6
06:10 1018 30.06 847 25.01 12 53.6 45 0.5 32.9
06:15 1018 30.06 848 25.04 11.8 53.2 46 0.6 33.1
06:20 1019 30.09 848 25.04 11.3 52.4 46 0.2 32.4
06:25 1019 30.09 848 25.04 11.2 52.1 49 1 33.9
06:30 1019 30.09 848 25.04 10.9 51.6 53 1.6 35
06:35 1019 30.09 849 25.07 10.7 51.3 53 1.4 34.6
06:40 1020 30.12 849 25.07 10.7 51.3 53 1.6 34.9
06:45 1020 30.12 849 25.07 10.5 51 54 1.6 34.8
06:50 1020 30.12 849 25.07 10.3 50.6 54 1.5 34.7
06:55 1020 30.12 849 25.07 9.8 49.6 57 1.7 35
07:00 1020 30.12 849 25.07 9.5 49.1 58 1.6 34.9
07:05 1020 30.12 849 25.07 9.3 48.8 58 1.5 34.7
07:10 1020 30.12 849 25.07 9.3 48.7 58 1.5 34.7
07:15 1020 30.12 850 25.1 9.5 49.1 57 1.5 34.8
07:20 1020 30.12 849 25.07 9.6 49.2 58 1.9 35.3
07:25 1020 30.12 849 25.07 9.6 49.2 58 1.7 35
07:30 1020 30.12 849 25.07 10 50.1 57 1.9 35.4
07:35 1020 30.12 849 25.07 10.4 50.8 55 1.7 35.1
07:40 1020 30.12 849 25.07 10.5 51 55 1.8 35.2
07:45 1020 30.12 849 25.07 10.6 51.2 53 1.6 34.9
07:50 1020 30.12 849 25.07 11.1 52 52 1.7 35.1
07:55 1020 30.12 849 25.07 11.8 53.2 51 1.9 35.4
08:00 1020 30.12 849 25.07 11.9 53.3 50 1.9 35.4
08:05 1020 30.12 849 25.07 12.3 54.2 48 1.8 35.2
08:10 1020 30.12 849 25.07 12.4 54.3 48 1.7 35.1
08:15 1020 30.12 849 25.07 12.3 54.1 48 1.8 35.2
08:20 1020 30.12 849 25.07 12.6 54.7 48 1.9 35.5
08:25 1020 30.12 849 25.07 13 55.3 47 2.1 35.8
08:30 1020 30.12 849 25.07 13 55.4 46 1.8 35.3
08:35 1020 30.12 849 25.07 13.1 55.7 45 1.7 35
08:40 1020 30.12 849 25.07 13.4 56.2 49 2.9 37.2
08:45 1019 30.09 849 25.07 14 57.2 46 2.8 37
08:50 1019 30.09 849 25.07 13.7 56.6 47 2.7 36.9
08:55 1019 30.09 849 25.07 13.6 56.5 47 2.7 36.8
09:00 1019 30.09 849 25.07 13.5 56.3 47 2.4 36.3
09:05 1019 30.09 848 25.04 13.4 56.1 47 2.3 36.1
09:10 1019 30.09 848 25.04 13.7 56.6 45 2 35.6
09:15 1019 30.09 848 25.04 14.2 57.5 43 1.8 35.2
09:20 1019 30.09 848 25.04 14.7 58.5 41 1.7 35
09:25 1019 30.09 848 25.04 15.6 60 38 1.5 34.8
09:30 1019 30.09 848 25.04 15.9 60.6 36 0.9 33.6
09:35 1019 30.09 848 25.04 15.8 60.4 35 0.4 32.8
09:40 1019 30.09 848 25.04 16.1 60.9 33 -0.1 31.7
09:45 1019 30.09 848 25.04 16.2 61.1 33 0.2 32.3
09:50 1019 30.09 848 25.04 16.5 61.6 33 0.2 32.3
09:55 1019 30.09 848 25.04 16.5 61.8 33 0.5 32.9
10:00 1019 30.09 848 25.04 16.9 62.4 33 0.6 33.1
10:05 1019 30.09 848 25.04 17.3 63.1 33 0.9 33.6
10:10 1018 30.06 848 25.04 17.2 62.9 32 0.5 33
10:15 1018 30.06 848 25.04 17 62.6 33 0.6 33.2
10:20 1018 30.06 848 25.04 17.4 63.2 32 0.6 33.1
10:25 1018 30.06 848 25.04 17.5 63.4 32 0.6 33.1
10:30 1018 30.06 847 25.01 17.8 64 31 0.7 33.3
10:35 1018 30.06 847 25.01 18.6 65.5 30 1 33.7
10:40 1018 30.06 847 25.01 18.3 65 31 1 33.8
10:45 1018 30.06 847 25.01 18.1 64.6 31 1 33.9
10:50 1018 30.06 847 25.01 18.6 65.4 30 0.9 33.6
10:55 1018 30.06 847 25.01 18.4 65.1 31 1 33.8
11:00 1018 30.06 847 25.01 18.6 65.4 31 1.1 34
11:05 1018 30.06 847 25.01 18.4 65.2 31 1.2 34.1
11:10 1018 30.06 847 25.01 17.9 64.2 32 1.1 34
11:15 1018 30.06 847 25.01 17.8 64 31 0.5 32.9
11:20 1018 30.06 847 25.01 17.9 64.2 30 0.4 32.7
11:25 1018 30.06 847 25.01 18.6 65.4 29 0.4 32.8
11:30 1018 30.06 847 25.01 18.9 66.1 30 1 33.9
11:35 1018 30.06 847 25.01 19 66.2 30 1.3 34.3
11:40 1018 30.06 847 25.01 18.8 65.8 32 1.8 35.2
11:45 1018 30.06 847 25.01 19.1 66.3 29 0.6 33.1
11:50 1017 30.03 847 25.01 19.7 67.4 29 1.4 34.5
11:55 1017 30.03 847 25.01 20.3 68.6 28 1.2 34.1
12:00 1017 30.03 846 24.98 20.3 68.6 27 0.9 33.6
12:05 1017 30.03 846 24.98 20.5 68.9 27 1.3 34.3
12:10 1017 30.03 846 24.98 20.5 68.9 28 1.4 34.5
12:15 1017 30.03 846 24.98 20.7 69.2 27 1.1 34.1
12:20 1017 30.03 846 24.98 20.5 68.8 28 1.5 34.7
12:25 1017 30.03 846 24.98 20.1 68.2 28 1.1 34
12:30 1017 30.03 846 24.98 20.7 69.2 26 0.9 33.6
12:35 1017 30.03 846 24.98 20.9 69.7 27 1.4 34.5
12:40 1017 30.03 846 24.98 21.6 70.9 25 1 33.8
12:45 1017 30.03 846 24.98 21.7 71.1 28 2.4 36.3
12:50 1017 30.03 846 24.98 21.1 70 28 2 35.5
12:55 1017 30.03 846 24.98 21.3 70.3 27 1.6 35
13:00 1017 30.03 846 24.98 21.1 70.1 27 1.4 34.5
13:05 1016 30 846 24.98 21.2 70.2 27 1.7 35.1
13:10 1016 30 846 24.98 22.3 72.1 24 1.2 34.1
13:15 1016 30 846 24.98 22.2 71.9 25 1.2 34.1
13:20 1016 30 846 24.98 21.8 71.3 25 1 33.8
13:25 1016 30 846 24.98 22 71.7 24 0.6 33
13:30 1016 30 846 24.98 23.1 73.5 23 0.8 33.5
13:35 1016 30 846 24.98 23.3 73.9 23 1 33.8
13:40 1016 30 846 24.98 22.8 73.1 23 1 33.7
13:45 1016 30 845 24.95 22.9 73.2 23 0.8 33.5
13:50 1016 30 845 24.95 23.8 74.8 22 1.3 34.3
13:55 1016 30 845 24.95 23.5 74.3 25 2.8 37
14:00 1016 30 845 24.95 22.9 73.2 26 2.5 36.5
14:05 1016 30 845 24.95 22.6 72.7 26 2.3 36.2
14:10 1016 30 845 24.95 23.4 74.1 25 2.3 36.2
14:15 1016 30 845 24.95 23.8 74.9 26 3.2 37.7
14:20 1016 30 845 24.95 23.3 74 26 3 37.3
14:25 1016 30 845 24.95 22.7 72.9 26 2.5 36.5
14:30 1016 30 845 24.95 21.9 71.5 27 2 35.6
14:35 1016 30 845 24.95 22.7 72.9 26 2.4 36.3
14:40 1016 30 845 24.95 21.7 71.1 27 2.1 35.8
14:45 1016 30 845 24.95 21.8 71.2 26 1.5 34.6
14:50 1016 30 845 24.95 22.7 72.9 25 2 35.6
14:55 1015 29.97 845 24.95 22.8 73 25 2 35.6
15:00 1015 29.97 845 24.95 22.3 72.2 25 1.6 35
15:05 1015 29.97 845 24.95 22.2 72 26 2.3 36.1
15:10 1015 29.97 845 24.95 22.4 72.3 26 2.1 35.7
15:15 1015 29.97 845 24.95 22.3 72.2 26 2.1 35.8
15:20 1015 29.97 844 24.92 22.3 72.2 25 1.4 34.6
15:25 1015 29.97 844 24.92 22.8 73.1 24 1.6 34.9
15:30 1015 29.97 844 24.92 24.2 75.6 22 1.2 34.2
15:35 1015 29.97 844 24.92 23.3 74 23 1.4 34.5
15:40 1015 29.97 844 24.92 23.4 74 22 0.7 33.3
15:45 1015 29.97 844 24.92 23 73.3 23 0.9 33.6
15:50 1015 29.97 844 24.92 23.1 73.5 22 0.5 33
15:55 1015 29.97 844 24.92 23.3 74 23 1 33.8
16:00 1015 29.97 844 24.92 23.4 74.1 22 0.7 33.2
16:05 1015 29.97 844 24.92 23.4 74.2 23 1.3 34.3
16:10 1015 29.97 844 24.92 22.9 73.2 23 0.6 33.1
16:15 1015 29.97 844 24.92 22.5 72.5 29 4 39.1
16:20 1015 29.97 844 24.92 21.9 71.5 30 3.8 38.8
16:25 1015 29.97 844 24.92 20.7 69.2 31 3.2 37.8
16:30 1015 29.97 844 24.92 20.2 68.3 32 3.3 37.9
16:35 1015 29.97 844 24.92 19.9 67.8 34 3.7 38.6
16:40 1015 29.97 844 24.92 19.6 67.3 35 3.8 38.8
16:45 1014 29.94 844 24.92 19.3 66.8 36 4 39.2
16:50 1014 29.94 844 24.92 19.2 66.5 36 4.1 39.3
16:55 1014 29.94 844 24.92 19 66.2 37 4.1 39.5
17:00 1014 29.94 844 24.92 18.8 65.9 38 4.3 39.8
17:05 1014 29.94 843 24.89 18.9 65.9 38 4.4 39.9
17:10 1014 29.94 843 24.89 18.9 65.9 37 4.1 39.4
17:15 1014 29.94 843 24.89 18.9 65.9 37 4 39.3
17:20 1014 29.94 843 24.89 18.8 65.9 37 4.1 39.3
17:25 1014 29.94 843 24.89 18.7 65.7 39 4.6 40.4
17:30 1015 29.97 844 24.92 18.6 65.4 39 4.5 40
17:35 1016 30 845 24.95 17.8 64 49 6.9 44.4
17:40 1015 29.97 845 24.95 15.3 59.5 59 7.3 45.2
17:45 1016 30 845 24.95 14.2 57.5 64 7.5 45.5
17:50 1016 30 845 24.95 12.9 55.2 71 7.9 46.2
17:55 1016 30 845 24.95 12.5 54.5 73 7.9 46.2
18:00 1016 30 845 24.95 12.4 54.4 67 6.5 43.7
18:05 1016 30 845 24.95 12.8 55 72 8 46.3
18:10 1015 29.97 844 24.92 12.5 54.6 72 7.7 45.8
18:15 1015 29.97 844 24.92 12.6 54.6 74 8.1 46.6
18:20 1015 29.97 844 24.92 12.4 54.3 75 8.1 46.5
18:25 1015 29.97 844 24.92 12.5 54.6 69 7 44.7
18:30 1015 29.97 844 24.92 12.9 55.2 71 7.7 45.8
18:35 1015 29.97 844 24.92 13 55.4 71 7.8 46.1
18:40 1015 29.97 844 24.92 13 55.3 68 7.3 45.2
18:45 1015 29.97 844 24.92 12.9 55.3 72 8 46.3
18:50 1015 29.97 844 24.92 12.8 55 71 7.8 46
18:55 1015 29.97 844 24.92 12.8 55 72 8 46.4
19:00 1015 29.97 844 24.92 12.7 54.9 71 7.6 45.6
19:05 1015 29.97 844 24.92 12.8 55 70 7.5 45.5
19:10 1015 29.97 844 24.92 12.8 55 68 7 44.6
19:15 1015 29.97 844 24.92 13 55.4 68 7.4 45.3
19:20 1015 29.97 844 24.92 12.9 55.3 69 7.4 45.3
19:25 1015 29.97 844 24.92 12.9 55.2 68 7.2 45
19:30 1015 29.97 844 24.92 13 55.4 68 7.2 45
19:35 1015 29.97 844 24.92 13.1 55.5 66 6.9 44.4
19:40 1015 29.97 844 24.92 13.3 55.9 66 7 44.6
19:45 1015 29.97 844 24.92 13.4 56 63 6.5 43.6
19:50 1015 29.97 845 24.95 13.9 57 66 7.7 45.9
19:55 1015 29.97 845 24.95 13.8 56.9 64 7.3 45.1
20:00 1015 29.97 845 24.95 13.6 56.4 65 7.2 44.9
20:05 1015 29.97 845 24.95 13.5 56.4 65 7.2 44.9
20:10 1015 29.97 844 24.92 13.5 56.4 66 7.4 45.3
20:15 1015 29.97 844 24.92 13.1 55.6 73 8.4 47.1
20:20 1016 30 845 24.95 12.8 55 64 6.3 43.3
20:25 1016 30 845 24.95 13.2 55.7 68 7.4 45.4
20:30 1016 30 845 24.95 13.2 55.8 70 7.8 46.1
20:35 1016 30 845 24.95 13 55.4 70 7.8 46
20:40 1016 30 845 24.95 12.9 55.2 72 8.1 46.5
20:45 1015 29.97 845 24.95 12.7 54.8 76 8.6 47.5
20:50 1015 29.97 845 24.95 12.5 54.5 76 8.5 47.3
20:55 1015 29.97 844 24.92 12.4 54.3 77 8.5 47.2
21:00 1015 29.97 844 24.92 12.3 54.2 77 8.5 47.3
21:05 1015 29.97 844 24.92 12.2 54 78 8.6 47.5
21:10 1015 29.97 844 24.92 12.2 53.9 78 8.4 47.1
21:15 1015 29.97 845 24.95 12.2 54 78 8.5 47.2
21:20 1016 30 845 24.95 12.5 54.4 78 8.7 47.7
21:25 1016 30 845 24.95 12.5 54.5 77 8.6 47.4
21:30 1016 30 845 24.95 12.4 54.3 78 8.7 47.6
21:35 1016 30 845 24.95 12.3 54.1 77 8.4 47.1
21:40 1016 30 845 24.95 12.1 53.8 78 8.3 47
21:45 1016 30 845 24.95 12.2 53.9 79 8.7 47.7
21:50 1016 30 845 24.95 12.3 54.1 78 8.6 47.4
21:55 1016 30 845 24.95 12.3 54.2 77 8.4 47.2
22:00 1016 30 846 24.98 12.4 54.3 76 8.3 46.9
22:05 1017 30.03 846 24.98 12.4 54.3 76 8.4 47.1
22:10 1017 30.03 846 24.98 12.2 54 78 8.6 47.4
22:15 1017 30.03 846 24.98 12 53.5 80 8.7 47.7
22:20 1017 30.03 846 24.98 11.7 53.1 83 8.9 48
22:25 1017 30.03 846 24.98 11.6 52.8 85 9.1 48.4
22:30 1017 30.03 846 24.98 11.4 52.5 85 9 48.2
22:35 1017 30.03 846 24.98 11.3 52.4 87 9.2 48.5
22:40 1017 30.03 846 24.98 11.3 52.4 86 9.1 48.5
22:45 1017 30.03 846 24.98 11.2 52.2 87 9.1 48.4
22:50 1017 30.03 846 24.98 11.2 52.2 87 9.2 48.5
22:55 1017 30.03 846 24.98 11.1 52.1 87 9.1 48.4
23:00 1017 30.03 846 24.98 11 51.9 88 9.1 48.4
23:05 1016 30 845 24.95 11 51.7 88 9 48.2
23:10 1016 30 845 24.95 11 51.7 88 9 48.2
23:15 1016 30 845 24.95 10.9 51.5 88 9 48.2
23:20 1016 30 845 24.95 10.8 51.5 89 9 48.3
23:25 1016 30 845 24.95 10.8 51.5 88 9 48.1
23:30 1016 30 845 24.95 10.8 51.4 88 8.9 48
23:35 1016 30 845 24.95 10.9 51.6 88 9 48.2
23:40 1016 30 845 24.95 11 51.8 87 8.9 48
23:45 1016 30 845 24.95 11 51.8 87 8.9 48
23:50 1016 30 845 24.95 11.1 51.9 86 8.8 47.8
23:55 1016 30 845 24.95 11.1 52.1 86 8.9 48
24:00 1016 30 845 24.95 11.2 52.1 85 8.8 47.8